createdAt,value
2022-08-27T00:01:19.711Z,8.75
2022-08-27T00:03:46.276Z,6.45
2022-08-27T00:06:14.174Z,7.53
2022-08-27T00:08:41.529Z,6.85
2022-08-27T00:11:09.002Z,13.20
2022-08-27T00:13:36.765Z,9.10
2022-08-27T00:16:05.014Z,6.80
2022-08-27T00:18:31.460Z,7.45
2022-08-27T00:20:57.941Z,7.82
2022-08-27T00:23:24.646Z,10.27
2022-08-27T00:25:51.628Z,9.07
2022-08-27T00:28:18.099Z,8.07
2022-08-27T00:30:44.761Z,6.55
2022-08-27T00:33:11.454Z,7.22
2022-08-27T00:35:38.337Z,7.65
2022-08-27T00:38:05.737Z,7.28
2022-08-27T00:40:33.645Z,7.70
2022-08-27T00:43:03.402Z,9.10
2022-08-27T00:45:32.055Z,7.07
2022-08-27T00:48:00.108Z,6.47
2022-08-27T00:50:34.706Z,7.05
2022-08-27T00:53:03.124Z,9.45
2022-08-27T00:55:35.961Z,7.35
2022-08-27T00:58:06.104Z,6.72
2022-08-27T01:00:32.785Z,6.93
2022-08-27T01:02:59.342Z,7.82
2022-08-27T01:05:27.115Z,6.43
2022-08-27T01:07:56.225Z,9.45
2022-08-27T01:10:24.621Z,7.30
2022-08-27T01:12:54.148Z,10.68
2022-08-27T01:15:21.649Z,10.25
2022-08-27T01:17:48.741Z,8.23
2022-08-27T01:20:20.465Z,8.48
2022-08-27T01:23:05.694Z,9.52
2022-08-27T01:25:32.194Z,6.68
2022-08-27T01:28:00.586Z,7.38
2022-08-27T01:30:27.694Z,7.13
2022-08-27T01:32:56.967Z,6.38
2022-08-27T01:35:23.875Z,10.77
2022-08-27T01:37:52.567Z,7.88
2022-08-27T01:40:19.556Z,7.95
2022-08-27T01:42:48.640Z,8.98
2022-08-27T01:45:16.727Z,8.05
2022-08-27T01:47:43.207Z,7.60
2022-08-27T01:50:11.538Z,8.55
2022-08-27T01:52:38.253Z,5.68
2022-08-27T01:55:05.875Z,6.80
2022-08-27T01:57:32.464Z,8.23
2022-08-27T01:59:59.007Z,8.38
2022-08-27T02:02:25.737Z,7.50
2022-08-27T02:04:52.254Z,6.70
2022-08-27T02:07:18.703Z,8.10
2022-08-27T02:09:45.369Z,8.20
2022-08-27T02:12:11.828Z,7.05
2022-08-27T02:14:38.310Z,7.90
2022-08-27T02:17:04.805Z,5.45
2022-08-27T02:19:31.454Z,5.97
2022-08-27T02:22:00.383Z,8.85
2022-08-27T02:24:30.139Z,8.70
2022-08-27T02:26:56.933Z,7.03
2022-08-27T02:29:24.449Z,6.10
2022-08-27T02:31:50.954Z,8.80
2022-08-27T02:34:17.774Z,8.63
2022-08-27T02:36:44.316Z,7.70
2022-08-27T02:39:11.309Z,8.52
2022-08-27T02:41:37.714Z,7.22
2022-08-27T02:44:10.139Z,6.72
2022-08-27T02:46:38.158Z,11.18
2022-08-27T02:49:04.795Z,5.93
2022-08-27T02:51:31.226Z,7.78
2022-08-27T02:53:57.658Z,6.45
2022-08-27T02:56:24.337Z,5.72
2022-08-27T02:58:53.072Z,5.70
2022-08-27T03:01:19.631Z,6.80
2022-08-27T03:03:46.751Z,8.73
2022-08-27T03:06:13.333Z,5.45
2022-08-27T03:08:52.669Z,7.13
2022-08-27T03:11:23.115Z,8.32
2022-08-27T03:13:49.693Z,8.10
2022-08-27T03:16:16.310Z,4.95
2022-08-27T03:18:42.754Z,4.68
2022-08-27T03:21:09.286Z,5.07
2022-08-27T03:23:35.817Z,5.93
2022-08-27T03:26:06.514Z,8.88
2022-08-27T03:28:34.736Z,6.95
2022-08-27T03:31:03.787Z,6.22
2022-08-27T03:33:34.580Z,6.43
2022-08-27T03:36:01.008Z,5.20
2022-08-27T03:38:27.567Z,8.25
2022-08-27T03:40:54.117Z,9.68
2022-08-27T03:43:21.444Z,7.63
2022-08-27T03:46:00.902Z,5.93
2022-08-27T03:48:29.307Z,5.40
2022-08-27T03:50:55.860Z,5.53
2022-08-27T03:53:22.356Z,8.32
2022-08-27T03:55:49.075Z,7.15
2022-08-27T03:58:16.074Z,6.10
2022-08-27T04:00:42.519Z,5.35
2022-08-27T04:03:09.077Z,8.07
2022-08-27T04:05:35.683Z,5.32
2022-08-27T04:08:02.184Z,6.55
2022-08-27T04:10:32.813Z,5.55
2022-08-27T04:13:01.238Z,5.35
2022-08-27T04:15:27.658Z,5.10
2022-08-27T04:17:54.110Z,5.20
2022-08-27T04:20:36.316Z,6.55
2022-08-27T04:23:03.547Z,6.07
2022-08-27T04:25:29.997Z,5.38
2022-08-27T04:27:56.565Z,6.60
2022-08-27T04:30:23.052Z,6.40
2022-08-27T04:32:50.651Z,5.50
2022-08-27T04:35:17.259Z,7.97
2022-08-27T04:37:45.049Z,7.35
2022-08-27T04:40:11.608Z,5.53
2022-08-27T04:42:38.102Z,5.88
2022-08-27T04:45:05.035Z,6.13
2022-08-27T04:47:31.527Z,6.72
2022-08-27T04:49:58.015Z,5.97
2022-08-27T04:52:24.661Z,5.38
2022-08-27T04:54:51.096Z,5.53
2022-08-27T04:57:17.598Z,6.75
2022-08-27T04:59:44.240Z,6.32
2022-08-27T05:02:11.254Z,9.10
2022-08-27T05:04:40.182Z,6.65
2022-08-27T05:07:07.784Z,10.75
2022-08-27T05:09:34.596Z,7.38
2022-08-27T05:12:01.740Z,6.93
2022-08-27T05:14:32.717Z,7.47
2022-08-27T05:19:25.817Z,7.63
2022-08-27T05:21:53.463Z,6.63
2022-08-27T05:24:20.261Z,5.65
2022-08-27T05:26:46.710Z,6.75
2022-08-27T05:29:14.080Z,5.18
2022-08-27T05:31:40.967Z,5.10
2022-08-27T05:34:10.540Z,12.82
2022-08-27T05:36:48.588Z,6.93
2022-08-27T05:39:16.115Z,6.75
2022-08-27T05:41:43.200Z,7.53
2022-08-27T05:44:37.217Z,8.23
2022-08-27T05:46:56.327Z,7.55
2022-08-27T05:49:22.789Z,6.53
2022-08-27T05:51:49.253Z,7.55
2022-08-27T05:54:19.378Z,8.88
2022-08-27T05:56:46.674Z,6.53
2022-08-27T05:59:31.651Z,12.30
2022-08-27T06:02:01.499Z,6.95
2022-08-27T06:04:28.168Z,6.45
2022-08-27T06:06:54.803Z,7.25
2022-08-27T06:09:25.501Z,6.90
2022-08-27T06:11:55.726Z,6.60
2022-08-27T06:14:22.664Z,7.50
2022-08-27T06:16:49.162Z,5.22
2022-08-27T06:19:15.696Z,7.35
2022-08-27T06:21:42.465Z,6.68
2022-08-27T06:24:09.611Z,9.30
2022-08-27T06:26:39.596Z,8.30
2022-08-27T06:29:06.873Z,8.10
2022-08-27T06:31:35.660Z,6.60
2022-08-27T06:34:07.653Z,7.57
2022-08-27T06:36:37.986Z,7.43
2022-08-27T06:39:04.690Z,7.57
2022-08-27T06:41:31.208Z,6.30
2022-08-27T06:43:58.431Z,7.13
2022-08-27T06:46:25.894Z,7.78
2022-08-27T06:48:56.826Z,7.80
2022-08-27T06:53:51.018Z,6.90
2022-08-27T06:56:17.928Z,6.78
2022-08-27T06:58:44.476Z,7.10
2022-08-27T07:01:14.157Z,6.93
2022-08-27T07:03:41.159Z,7.43
2022-08-27T07:06:07.687Z,9.85
2022-08-27T07:08:34.190Z,6.88
2022-08-27T07:11:03.730Z,8.25
2022-08-27T07:13:30.174Z,5.82
2022-08-27T07:15:57.417Z,4.82
2022-08-27T07:18:27.850Z,6.03
2022-08-27T07:20:54.780Z,5.68
2022-08-27T07:23:21.727Z,5.53
2022-08-27T07:25:48.525Z,5.45
2022-08-27T07:28:15.048Z,6.53
2022-08-27T07:30:41.565Z,6.63
2022-08-27T07:33:08.434Z,5.72
2022-08-27T07:35:34.879Z,7.05
2022-08-27T07:38:01.334Z,5.28
2022-08-27T07:40:27.829Z,8.77
2022-08-27T07:43:12.813Z,7.47
2022-08-27T07:45:44.438Z,4.72
2022-08-27T07:48:11.437Z,5.68
2022-08-27T07:50:38.022Z,6.05
2022-08-27T07:53:04.593Z,5.10
2022-08-27T07:55:31.089Z,6.25
2022-08-27T07:57:57.565Z,5.60
2022-08-27T08:00:24.055Z,5.20
2022-08-27T08:02:51.128Z,5.60
2022-08-27T08:05:17.802Z,6.10
2022-08-27T08:07:44.414Z,5.43
2022-08-27T08:10:11.775Z,5.78
2022-08-27T08:12:41.370Z,7.68
2022-08-27T08:15:09.196Z,5.68
2022-08-27T08:17:36.289Z,6.47
2022-08-27T08:20:21.471Z,6.82
2022-08-27T08:22:50.228Z,7.65
2022-08-27T08:25:16.815Z,6.55
2022-08-27T08:27:43.602Z,6.88
2022-08-27T08:30:10.475Z,6.15
2022-08-27T08:32:39.218Z,6.93
2022-08-27T08:35:06.321Z,5.50
2022-08-27T08:37:32.843Z,7.47
2022-08-27T08:39:59.317Z,8.02
2022-08-27T08:42:28.537Z,7.53
2022-08-27T08:44:56.818Z,6.13
2022-08-27T08:47:46.343Z,5.50
2022-08-27T08:50:21.409Z,7.40
2022-08-27T08:52:54.701Z,5.95
2022-08-27T08:55:39.950Z,6.22
2022-08-27T08:58:16.583Z,5.40
2022-08-27T09:00:44.161Z,4.70
2022-08-27T09:03:12.278Z,7.18
2022-08-27T09:05:40.535Z,5.30
2022-08-27T09:08:33.000Z,4.30
2022-08-27T09:11:04.133Z,4.68
2022-08-27T09:13:38.011Z,7.75
2022-08-27T09:16:05.149Z,5.43
2022-08-27T09:18:35.148Z,7.07
2022-08-27T09:21:27.799Z,7.22
2022-08-27T09:24:02.205Z,5.93
2022-08-27T09:26:29.716Z,5.55
2022-08-27T09:29:16.020Z,5.05
2022-08-27T09:32:08.911Z,4.97
2022-08-27T09:34:37.645Z,5.05
2022-08-27T09:37:05.475Z,6.43
2022-08-27T09:39:41.261Z,6.43
2022-08-27T09:42:08.016Z,7.10
2022-08-27T09:44:44.658Z,5.47
2022-08-27T09:47:14.440Z,8.35
2022-08-27T09:49:41.449Z,5.72
2022-08-27T09:52:08.513Z,6.20
2022-08-27T09:54:40.383Z,6.93
2022-08-27T09:57:09.634Z,7.22
2022-08-27T09:59:38.344Z,8.40
2022-08-27T10:02:14.639Z,9.63
2022-08-27T10:04:51.543Z,6.53
2022-08-27T10:07:31.207Z,8.30
2022-08-27T10:10:07.985Z,5.13
2022-08-27T10:12:42.121Z,8.85
2022-08-27T10:15:10.186Z,9.60
2022-08-27T10:17:36.581Z,8.60
2022-08-27T10:20:05.180Z,5.75
2022-08-27T10:22:52.087Z,12.30
2022-08-27T10:25:34.784Z,7.13
2022-08-27T10:28:08.606Z,7.55
2022-08-27T10:30:49.825Z,7.00
2022-08-27T10:33:23.677Z,6.35
2022-08-27T10:36:05.629Z,7.80
2022-08-27T10:38:45.088Z,6.85
2022-08-27T10:41:16.506Z,6.35
2022-08-27T10:43:42.946Z,7.07
2022-08-27T10:46:12.633Z,6.60
2022-08-27T10:48:40.525Z,6.32
2022-08-27T10:51:20.451Z,7.05
2022-08-27T10:53:49.630Z,5.90
2022-08-27T10:56:26.855Z,6.20
2022-08-27T10:58:56.353Z,7.65
2022-08-27T11:01:43.311Z,6.82
2022-08-27T11:04:13.253Z,8.27
2022-08-27T11:06:43.006Z,8.67
2022-08-27T11:09:15.535Z,6.10
2022-08-27T11:14:50.318Z,7.28
2022-08-27T11:17:35.362Z,8.30
2022-08-27T11:20:11.555Z,9.73
2022-08-27T11:22:45.842Z,12.60
2022-08-27T11:25:21.558Z,11.07
2022-08-27T11:27:50.168Z,10.45
2022-08-27T11:30:31.829Z,18.90
2022-08-27T11:33:01.228Z,14.27
2022-08-27T11:35:27.627Z,13.02
2022-08-27T11:38:00.176Z,13.05
2022-08-27T11:40:38.342Z,6.18
2022-08-27T11:43:06.214Z,8.85
2022-08-27T11:45:38.412Z,8.85
2022-08-27T11:48:16.091Z,8.55
2022-08-27T11:50:52.743Z,9.70
2022-08-27T11:53:28.241Z,7.88
2022-08-27T11:55:55.116Z,6.90
2022-08-27T11:58:21.859Z,7.90
2022-08-27T12:00:48.812Z,8.55
2022-08-27T12:03:21.455Z,7.53
2022-08-27T12:05:53.821Z,7.70
2022-08-27T12:08:23.777Z,7.88
2022-08-27T12:11:08.930Z,8.40
2022-08-27T12:13:44.377Z,5.45
2022-08-27T12:16:16.969Z,7.18
2022-08-27T12:18:43.440Z,8.07
2022-08-27T12:21:09.976Z,6.68
2022-08-27T12:23:56.786Z,8.00
2022-08-27T12:26:23.180Z,6.50
2022-08-27T12:28:49.649Z,8.48
2022-08-27T12:31:25.250Z,7.75
2022-08-27T12:33:53.828Z,5.97
2022-08-27T12:36:27.533Z,6.30
2022-08-27T12:38:58.394Z,6.80
2022-08-27T12:41:26.455Z,7.70
2022-08-27T12:44:02.331Z,6.05
2022-08-27T12:46:30.656Z,7.95
2022-08-27T12:48:59.245Z,6.18
2022-08-27T12:51:39.462Z,5.80
2022-08-27T12:54:11.999Z,6.28
2022-08-27T12:56:45.493Z,8.93
2022-08-27T12:59:17.853Z,8.90
2022-08-27T13:01:44.379Z,7.55
2022-08-27T13:04:24.296Z,6.30
2022-08-27T13:06:51.180Z,5.47
2022-08-27T13:09:25.433Z,6.05
2022-08-27T13:11:56.906Z,6.43
2022-08-27T13:14:24.559Z,5.65
2022-08-27T13:16:52.975Z,5.53
2022-08-27T13:19:28.393Z,7.10
2022-08-27T13:21:55.238Z,8.07
2022-08-27T13:24:27.664Z,6.10
2022-08-27T13:26:54.756Z,8.60
2022-08-27T13:29:21.270Z,7.47
2022-08-27T13:31:49.462Z,8.50
2022-08-27T13:34:20.340Z,5.78
2022-08-27T13:39:14.384Z,7.80
2022-08-27T13:41:41.062Z,8.25
2022-08-27T13:44:12.490Z,7.03
2022-08-27T13:47:02.136Z,9.32
2022-08-27T13:49:29.992Z,10.55
2022-08-27T13:52:01.366Z,5.88
2022-08-27T13:54:28.260Z,7.85
2022-08-27T13:56:57.512Z,8.38
2022-08-27T13:59:27.201Z,7.00
2022-08-27T14:01:59.895Z,7.40
2022-08-27T14:04:34.661Z,5.75
2022-08-27T14:07:06.721Z,8.52
2022-08-27T14:09:33.152Z,11.15
2022-08-27T14:11:59.565Z,7.07
2022-08-27T14:14:26.245Z,6.40
2022-08-27T14:17:00.932Z,5.03
2022-08-27T14:19:27.356Z,6.38
2022-08-27T14:21:54.201Z,7.32
2022-08-27T14:24:20.712Z,6.43
2022-08-27T14:26:51.366Z,9.75
2022-08-27T14:29:18.071Z,6.22
2022-08-27T14:31:44.878Z,5.25
2022-08-27T14:34:11.551Z,9.35
2022-08-27T14:36:38.858Z,4.30
2022-08-27T14:39:06.068Z,4.68
2022-08-27T14:41:33.412Z,6.28
2022-08-27T14:43:59.900Z,5.32
2022-08-27T14:46:30.908Z,5.35
2022-08-27T14:48:58.611Z,7.10
2022-08-27T14:51:27.481Z,7.70
2022-08-27T14:53:54.320Z,7.03
2022-08-27T14:56:21.331Z,7.38
2022-08-27T14:58:48.268Z,5.57
2022-08-27T15:01:15.106Z,5.85
2022-08-27T15:03:46.186Z,5.45
2022-08-27T15:06:12.781Z,5.13
2022-08-27T15:08:41.165Z,4.93
2022-08-27T15:11:23.593Z,5.63
2022-08-27T15:13:51.124Z,5.95
2022-08-27T15:16:27.051Z,5.72
2022-08-27T15:19:00.832Z,9.43
2022-08-27T15:21:28.838Z,6.20
2022-08-27T15:23:58.301Z,6.57
2022-08-27T15:26:24.862Z,5.78
2022-08-27T15:28:51.325Z,7.88
2022-08-27T15:31:18.699Z,5.15
2022-08-27T15:33:45.668Z,9.43
2022-08-27T15:36:12.740Z,6.47
2022-08-27T15:38:39.751Z,5.55
2022-08-27T15:41:06.779Z,5.60
2022-08-27T15:43:33.209Z,7.63
2022-08-27T15:45:59.796Z,7.43
2022-08-27T15:48:26.284Z,6.95
2022-08-27T15:50:53.069Z,6.75
2022-08-27T15:53:21.582Z,6.40
2022-08-27T15:55:47.963Z,5.68
2022-08-27T15:58:14.398Z,6.18
2022-08-27T16:00:41.709Z,6.22
2022-08-27T16:03:09.825Z,6.07
2022-08-27T16:05:37.423Z,6.20
2022-08-27T16:08:04.207Z,7.10
2022-08-27T16:10:30.956Z,9.43
2022-08-27T16:12:57.373Z,8.07
2022-08-27T16:15:26.927Z,6.43
2022-08-27T16:17:56.500Z,6.38
2022-08-27T16:20:24.676Z,6.43
2022-08-27T16:22:52.045Z,7.13
2022-08-27T16:25:20.715Z,7.75
2022-08-27T16:27:47.473Z,8.82
2022-08-27T16:30:14.168Z,6.32
2022-08-27T16:32:41.176Z,9.52
2022-08-27T16:35:08.978Z,6.80
2022-08-27T16:37:35.638Z,7.35
2022-08-27T16:40:02.214Z,5.13
2022-08-27T16:42:28.629Z,6.40
2022-08-27T16:44:55.016Z,8.88
2022-08-27T16:47:21.401Z,6.95
2022-08-27T16:50:07.305Z,6.68
2022-08-27T16:52:34.273Z,6.88
2022-08-27T16:55:00.675Z,5.57
2022-08-27T16:57:27.111Z,11.52
2022-08-27T16:59:55.043Z,6.32
2022-08-27T17:02:30.152Z,6.50
2022-08-27T17:05:12.330Z,6.75
2022-08-27T17:07:43.976Z,7.15
2022-08-27T17:10:13.257Z,8.35
2022-08-27T17:12:40.693Z,7.05
2022-08-27T17:15:07.588Z,7.22
2022-08-27T17:17:33.961Z,6.75
2022-08-27T17:20:00.335Z,7.25
2022-08-27T17:22:27.510Z,6.47
2022-08-27T17:24:53.881Z,8.77
2022-08-27T17:27:20.441Z,8.85
2022-08-27T17:29:46.826Z,8.32
2022-08-27T17:32:13.191Z,12.63
2022-08-27T17:34:40.255Z,7.68
2022-08-27T17:37:06.623Z,8.52
2022-08-27T17:39:33.008Z,9.90
2022-08-27T17:41:59.403Z,8.45
2022-08-27T17:44:27.908Z,7.75
2022-08-27T17:46:55.990Z,9.68
2022-08-27T17:49:22.822Z,8.40
2022-08-27T17:51:49.954Z,7.47
2022-08-27T17:54:25.717Z,7.47
2022-08-27T17:56:52.117Z,6.80
2022-08-27T17:59:19.100Z,8.13
2022-08-27T18:01:45.562Z,7.43
2022-08-27T18:04:12.466Z,5.95
2022-08-27T18:06:39.258Z,8.18
2022-08-27T18:09:05.869Z,6.55
2022-08-27T18:11:32.535Z,8.30
2022-08-27T18:14:02.805Z,8.27
2022-08-27T18:16:32.219Z,10.20
2022-08-27T18:18:58.671Z,7.50
2022-08-27T18:21:26.317Z,7.38
2022-08-27T18:23:53.618Z,8.88
2022-08-27T18:26:20.737Z,8.38
2022-08-27T18:28:47.526Z,7.90
2022-08-27T18:31:14.267Z,9.90
2022-08-27T18:33:40.736Z,8.30
2022-08-27T18:36:07.256Z,9.82
2022-08-27T18:38:33.655Z,8.10
2022-08-27T18:41:00.526Z,11.88
2022-08-27T18:43:30.850Z,8.90
2022-08-27T18:45:57.325Z,9.40
2022-08-27T18:48:23.837Z,8.77
2022-08-27T18:50:54.469Z,9.50
2022-08-27T18:53:21.611Z,10.40
2022-08-27T18:55:48.844Z,9.88
2022-08-27T18:58:15.247Z,10.25
2022-08-27T19:00:43.367Z,10.15
2022-08-27T19:03:10.420Z,10.90
2022-08-27T19:05:36.995Z,8.38
2022-08-27T19:08:03.517Z,8.55
2022-08-27T19:10:29.965Z,7.80
2022-08-27T19:12:56.381Z,7.95
2022-08-27T19:15:22.786Z,8.50
2022-08-27T19:17:50.913Z,9.90
2022-08-27T19:20:18.608Z,8.90
2022-08-27T19:22:45.692Z,10.95
2022-08-27T19:25:12.138Z,10.48
2022-08-27T19:27:38.672Z,9.93
2022-08-27T19:30:06.065Z,9.38
2022-08-27T19:32:32.475Z,8.18
2022-08-27T19:34:58.833Z,10.52
2022-08-27T19:37:27.925Z,12.05
2022-08-27T19:39:54.867Z,9.77
2022-08-27T19:42:21.444Z,9.50
2022-08-27T19:44:48.000Z,11.10
2022-08-27T19:47:15.817Z,9.48
2022-08-27T19:49:49.695Z,9.07
2022-08-27T19:52:16.197Z,8.43
2022-08-27T19:55:03.329Z,8.93
2022-08-27T19:57:32.066Z,9.02
2022-08-27T19:59:58.525Z,11.27
2022-08-27T20:02:25.437Z,11.07
2022-08-27T20:05:16.321Z,12.57
2022-08-27T20:07:38.269Z,9.60
2022-08-27T20:10:08.623Z,13.60
2022-08-27T20:12:35.408Z,8.82
2022-08-27T20:15:01.808Z,10.65
2022-08-27T20:17:28.385Z,9.02
2022-08-27T20:19:55.876Z,8.02
2022-08-27T20:22:22.363Z,9.30
2022-08-27T20:24:48.919Z,8.45
2022-08-27T20:27:15.393Z,9.35
2022-08-27T20:29:42.141Z,10.10
2022-08-27T20:32:08.701Z,9.85
2022-08-27T20:34:35.156Z,11.55
2022-08-27T20:37:02.650Z,11.35
2022-08-27T20:39:29.045Z,8.85
2022-08-27T20:41:55.410Z,12.50
2022-08-27T20:44:21.876Z,8.18
2022-08-27T20:46:52.060Z,11.40
2022-08-27T20:49:18.766Z,11.77
2022-08-27T20:51:53.495Z,8.50
2022-08-27T20:54:28.980Z,11.57
2022-08-27T20:56:55.483Z,10.50
2022-08-27T20:59:40.457Z,9.40
2022-08-27T21:02:08.232Z,13.38
2022-08-27T21:04:35.785Z,11.68
2022-08-27T21:07:02.176Z,11.82
2022-08-27T21:09:28.672Z,10.65
2022-08-27T21:12:01.406Z,12.82
2022-08-27T21:14:28.064Z,10.73
2022-08-27T21:16:54.599Z,12.88
2022-08-27T21:19:21.255Z,9.93
2022-08-27T21:21:47.737Z,8.85
2022-08-27T21:24:14.453Z,13.32
2022-08-27T21:26:40.917Z,8.60
2022-08-27T21:29:07.301Z,11.55
2022-08-27T21:31:33.992Z,10.48
2022-08-27T21:34:00.494Z,12.10
2022-08-27T21:36:26.887Z,10.27
2022-08-27T21:38:53.330Z,12.63
2022-08-27T21:41:20.549Z,8.80
2022-08-27T21:43:47.186Z,13.02
2022-08-27T21:46:13.643Z,10.90
2022-08-27T21:48:40.062Z,10.00
2022-08-27T21:51:08.186Z,10.05
2022-08-27T21:53:34.595Z,12.10
2022-08-27T21:56:01.105Z,12.15
2022-08-27T21:58:27.534Z,13.63
2022-08-27T22:00:54.156Z,9.40
2022-08-27T22:03:22.526Z,11.40
2022-08-27T22:05:49.482Z,11.48
2022-08-27T22:08:17.181Z,8.80
2022-08-27T22:10:45.062Z,12.13
2022-08-27T22:13:11.861Z,11.38
2022-08-27T22:15:38.698Z,9.57
2022-08-27T22:18:05.715Z,12.20
2022-08-27T22:20:32.664Z,11.90
2022-08-27T22:22:59.105Z,9.80
2022-08-27T22:25:26.173Z,9.38
2022-08-27T22:27:55.086Z,9.90
2022-08-27T22:30:21.808Z,9.73
2022-08-27T22:32:48.403Z,11.27
2022-08-27T22:35:15.750Z,8.90
2022-08-27T22:37:42.217Z,12.63
2022-08-27T22:40:18.450Z,13.48
2022-08-27T22:42:46.097Z,13.00
2022-08-27T22:45:12.579Z,13.13
2022-08-27T22:47:39.033Z,12.85
2022-08-27T22:50:05.794Z,17.10
2022-08-27T22:52:32.185Z,15.45
2022-08-27T22:54:58.601Z,13.15
2022-08-27T22:57:25.011Z,12.05
2022-08-27T22:59:51.393Z,15.13
2022-08-27T23:02:20.855Z,15.45
2022-08-27T23:04:55.572Z,13.93
2022-08-27T23:07:22.757Z,16.73
2022-08-27T23:09:49.139Z,15.32
2022-08-27T23:12:15.583Z,14.88
2022-08-27T23:14:42.040Z,14.75
2022-08-27T23:17:08.409Z,13.05
2022-08-27T23:19:34.838Z,16.88
2022-08-27T23:22:01.227Z,16.58
2022-08-27T23:24:32.738Z,11.63
2022-08-27T23:27:17.753Z,11.98
2022-08-27T23:29:45.209Z,12.27
2022-08-27T23:32:11.718Z,14.65
2022-08-27T23:34:38.364Z,12.20
2022-08-27T23:37:04.779Z,10.43
2022-08-27T23:39:34.322Z,12.90
2022-08-27T23:42:01.029Z,11.23
2022-08-27T23:44:29.276Z,13.80
2022-08-27T23:46:58.071Z,13.57
2022-08-27T23:49:24.454Z,12.27
2022-08-27T23:51:50.847Z,12.63
2022-08-27T23:54:17.373Z,9.73
2022-08-27T23:56:46.893Z,11.75
2022-08-27T23:59:13.277Z,10.00
